< < Back
Terminal Aerodrome Forecast


Current Version              Previous Versions:   1  2  3  4  5  6  7  8  9  

Terminal Aerodrome Forecast

435
FTUS42 KCAE 172300
TAFAGS
TAF
KAGS 172320Z 1800/1824 VRB03KT P6SM FEW030 BKN080
      TEMPO 1801/1803 5SM -RA BR BKN015
     FM180300 VRB03KT 4SM BR OVC007
     FM180800 VRB03KT 2SM BR OVC004
     FM181500 VRB03KT P6SM BKN015
     FM182000 03004KT P6SM BKN025=



Latest METAR

880
SAUS70 KWBC 180500
MTRAGS
METAR KAGS 180453Z AUTO 00000KT 3SM RA BR FEW014 BKN040 OVC095 18/18
A3001 RMK AO2 SLP162 P0014 T01830178 402060133


USA.gov is the U.S. government's official web portal to all federal, state and local government web resources and services.